This is the latest recevied weather packets stored in our database for station/object WB5HZM-3. If no packets are shown the sender has not sent any weather packets the latest 10 day(s).
| Time | Temp. | Humidity | Pressure | Rain* | Wind** | Luminosity | Snow |
|---|---|---|---|---|---|---|---|
| 1777349003 | 25° C | 85% | 1013.9 hPa | 0 mm | - | - | - |
| 1777348398 | 25° C | 85% | 1013.8 hPa | 0 mm | - | - | - |
| 1777347795 | 25° C | 85% | 1013.7 hPa | 0 mm | - | - | - |
| 1777347208 | 25° C | 85% | 1013.4 hPa | 0 mm | - | - | - |
| 1777346603 | 25.56° C | 85% | 1013.3 hPa | 0 mm | - | - | - |
| 1777345997 | 25.56° C | 85% | 1013.2 hPa | 0 mm | - | - | - |
| 1777345397 | 25.56° C | 85% | 1013.1 hPa | 0 mm | - | - | - |
| 1777343604 | 25.56° C | 84% | 1012.9 hPa | 0 mm | - | - | - |
| 1777342999 | 25.56° C | 84% | 1012.6 hPa | 0 mm | - | - | - |
| 1777341805 | 26.11° C | 84% | 1012.5 hPa | 0 mm | - | - | - |
| 1777339993 | 26.67° C | 83% | 1012 hPa | 0 mm | - | - | - |
| 1777339411 | 26.67° C | 82% | 1012 hPa | 0 mm | - | - | - |
| 1777338806 | 26.67° C | 82% | 1012 hPa | 0 mm | - | - | - |
| 1777337596 | 27.22° C | 81% | 1011.7 hPa | 0 mm | - | - | - |
| 1777328004 | 30° C | 74% | 1010.8 hPa | 0 mm | - | - | - |
| 1777312992 | 28.89° C | 78% | 1012.3 hPa | 0 mm | - | - | - |
| 1777311198 | 28.33° C | 80% | 1012.5 hPa | 0 mm | - | - | - |
| 1777310599 | 28.33° C | 80% | 1012.7 hPa | 0 mm | - | - | - |
| 1777309994 | 28.33° C | 80% | 1012.6 hPa | 0 mm | - | - | - |
| 1777303995 | 26.67° C | 84% | 1012.2 hPa | 0 mm | - | - | - |
| 1777300397 | 26.11° C | 85% | 1011.9 hPa | 0 mm | - | - | - |
| 1777299793 | 25.56° C | 85% | 1011.8 hPa | 0 mm | - | - | - |
| 1777299207 | 25.56° C | 85% | 1011.9 hPa | 0 mm | - | - | - |
| 1777297397 | 25.56° C | 85% | 1011.5 hPa | 0 mm | - | - | - |
| 1777295608 | 25° C | 84% | 1011.2 hPa | 0 mm | - | - | - |
* Rain latest hour (hover to see other rain measurements)
** Current wind speed in m/s (hover to see current wind gust speed)